createdAt,value
2022-12-23T00:00:31.882Z,996.0
2022-12-23T00:01:31.949Z,995.9
2022-12-23T00:02:32.261Z,995.9
2022-12-23T00:03:32.242Z,995.9
2022-12-23T00:04:31.914Z,995.9
2022-12-23T00:05:38.336Z,995.9
2022-12-23T00:06:31.910Z,995.9
2022-12-23T00:07:31.922Z,995.8
2022-12-23T00:08:31.926Z,995.8
2022-12-23T00:09:31.927Z,995.8
2022-12-23T00:10:31.956Z,995.9
2022-12-23T00:11:31.947Z,995.8
2022-12-23T00:12:31.972Z,995.8
2022-12-23T00:13:31.982Z,995.8
2022-12-23T00:14:31.973Z,995.9
2022-12-23T00:15:31.975Z,995.9
2022-12-23T00:16:32.146Z,995.8
2022-12-23T00:17:31.990Z,995.8
2022-12-23T00:18:31.997Z,995.8
2022-12-23T00:19:32.007Z,995.9
2022-12-23T00:20:32.018Z,995.9
2022-12-23T00:21:32.034Z,995.9
2022-12-23T00:22:32.035Z,995.8
2022-12-23T00:23:32.040Z,995.9
2022-12-23T00:24:32.045Z,995.9
2022-12-23T00:25:32.085Z,995.9
2022-12-23T00:26:32.057Z,995.9
2022-12-23T00:27:37.965Z,995.9
2022-12-23T00:28:32.074Z,995.9
2022-12-23T00:29:32.096Z,995.9
2022-12-23T00:30:32.094Z,995.9
2022-12-23T00:31:32.450Z,995.9
2022-12-23T00:32:32.123Z,995.8
2022-12-23T00:33:32.152Z,995.9
2022-12-23T00:34:32.138Z,995.9
2022-12-23T00:35:32.145Z,995.9
2022-12-23T00:36:32.419Z,995.9
2022-12-23T00:37:32.153Z,995.9
2022-12-23T00:38:32.146Z,995.9
2022-12-23T00:39:32.204Z,995.9
2022-12-23T00:40:32.163Z,995.9
2022-12-23T00:41:32.212Z,995.9
2022-12-23T00:42:32.183Z,995.9
2022-12-23T00:43:32.189Z,995.9
2022-12-23T00:44:32.207Z,995.9
2022-12-23T00:45:32.273Z,995.9
2022-12-23T00:46:32.352Z,995.9
2022-12-23T00:47:32.216Z,995.9
2022-12-23T00:48:32.241Z,995.9
2022-12-23T00:49:32.247Z,995.9
2022-12-23T00:50:32.242Z,995.9
2022-12-23T00:51:32.240Z,995.9
2022-12-23T00:52:32.250Z,995.9
2022-12-23T00:53:32.268Z,995.9
2022-12-23T00:54:32.256Z,996.0
2022-12-23T00:55:32.278Z,996.0
2022-12-23T00:56:32.269Z,996.0
2022-12-23T00:57:32.277Z,995.9
2022-12-23T00:58:32.290Z,996.0
2022-12-23T00:59:32.290Z,995.9
2022-12-23T01:00:32.302Z,996.0
2022-12-23T01:01:32.664Z,995.9
2022-12-23T01:02:32.501Z,995.9
2022-12-23T01:03:32.499Z,995.9
2022-12-23T01:21:32.698Z,995.9
2022-12-23T01:22:32.524Z,995.9
2022-12-23T01:23:32.490Z,995.9
2022-12-23T01:24:32.521Z,995.8
2022-12-23T01:25:32.515Z,995.9
2022-12-23T01:26:32.520Z,995.8
2022-12-23T01:27:32.543Z,995.8
2022-12-23T01:28:32.543Z,995.8
2022-12-23T01:29:32.556Z,995.8
2022-12-23T01:30:32.561Z,995.9
2022-12-23T01:31:32.715Z,995.9
2022-12-23T01:32:32.573Z,995.9
2022-12-23T01:33:32.580Z,995.9
2022-12-23T01:34:37.798Z,995.9
2022-12-23T01:35:32.623Z,995.9
2022-12-23T01:36:32.608Z,995.8
2022-12-23T01:37:32.626Z,995.9
2022-12-23T01:38:32.646Z,995.8
2022-12-23T01:39:32.664Z,995.8
2022-12-23T01:40:32.651Z,995.8
2022-12-23T01:41:32.670Z,995.8
2022-12-23T01:42:32.675Z,995.8
2022-12-23T01:43:32.672Z,995.9
2022-12-23T01:44:32.662Z,995.8
2022-12-23T01:45:32.798Z,995.9
2022-12-23T01:46:32.919Z,995.8
2022-12-23T01:47:32.707Z,995.8
2022-12-23T01:48:32.703Z,995.8
2022-12-23T01:49:32.744Z,995.8
2022-12-23T01:50:32.731Z,995.8
2022-12-23T01:51:32.723Z,995.9
2022-12-23T01:52:32.795Z,995.9
2022-12-23T01:53:32.740Z,995.9
2022-12-23T01:54:32.745Z,995.9
2022-12-23T01:55:32.751Z,995.9
2022-12-23T01:56:32.765Z,995.9
2022-12-23T01:57:32.780Z,995.9
2022-12-23T01:58:32.781Z,995.9
2022-12-23T01:59:32.773Z,995.9
2022-12-23T02:00:32.802Z,995.9
2022-12-23T02:01:33.148Z,996.0
2022-12-23T02:02:33.043Z,995.9
2022-12-23T02:03:32.855Z,996.0
2022-12-23T02:04:32.816Z,995.9
2022-12-23T02:05:32.823Z,996.0
2022-12-23T02:06:32.838Z,995.9
2022-12-23T02:07:32.851Z,995.8
2022-12-23T02:08:32.844Z,995.9
2022-12-23T02:09:32.863Z,995.9
2022-12-23T02:10:32.854Z,995.9
2022-12-23T02:11:32.866Z,995.9
2022-12-23T02:12:32.866Z,995.9
2022-12-23T02:13:32.898Z,995.9
2022-12-23T02:14:32.900Z,995.9
2022-12-23T02:15:32.897Z,995.8
2022-12-23T02:16:32.937Z,995.8
2022-12-23T02:17:32.911Z,995.8
2022-12-23T02:18:32.922Z,995.9
2022-12-23T02:19:32.928Z,995.8
2022-12-23T02:20:32.940Z,995.8
2022-12-23T02:21:33.025Z,995.8
2022-12-23T02:22:32.944Z,995.8
2022-12-23T02:23:32.952Z,995.8
2022-12-23T02:24:32.963Z,995.8
2022-12-23T02:25:32.970Z,995.9
2022-12-23T02:26:32.977Z,995.9
2022-12-23T02:27:32.999Z,995.9
2022-12-23T02:28:32.992Z,995.9
2022-12-23T02:29:32.996Z,995.9
2022-12-23T02:30:33.122Z,995.9
2022-12-23T02:31:33.131Z,995.9
2022-12-23T02:32:33.025Z,995.9
2022-12-23T02:33:33.054Z,995.8
2022-12-23T02:34:33.030Z,995.8
2022-12-23T02:35:33.038Z,995.9
2022-12-23T02:36:33.071Z,995.8
2022-12-23T02:37:33.069Z,995.8
2022-12-23T02:38:40.840Z,995.8
2022-12-23T02:39:33.101Z,995.8
2022-12-23T02:40:33.071Z,995.8
2022-12-23T02:41:33.098Z,995.8
2022-12-23T02:42:33.283Z,995.9
2022-12-23T02:43:33.101Z,995.9
2022-12-23T02:44:33.141Z,996.0
2022-12-23T02:45:33.125Z,995.9
2022-12-23T02:46:33.425Z,996.0
2022-12-23T02:47:33.149Z,995.9
2022-12-23T02:48:33.169Z,996.0
2022-12-23T02:49:33.172Z,996.0
2022-12-23T02:50:33.175Z,995.9
2022-12-23T02:51:33.184Z,996.0
2022-12-23T02:52:33.204Z,996.0
2022-12-23T02:53:33.217Z,996.0
2022-12-23T02:54:33.211Z,996.0
2022-12-23T02:55:33.217Z,996.1
2022-12-23T02:56:33.230Z,996.0
2022-12-23T02:57:33.241Z,996.0
2022-12-23T02:58:33.242Z,996.0
2022-12-23T02:59:33.258Z,996.1
2022-12-23T03:00:33.272Z,996.1
2022-12-23T03:01:33.544Z,996.1
2022-12-23T03:02:33.603Z,996.1
2022-12-23T03:03:33.387Z,996.1
2022-12-23T03:04:33.319Z,996.1
2022-12-23T03:05:33.343Z,996.1
2022-12-23T03:06:33.305Z,996.1
2022-12-23T03:07:33.315Z,996.1
2022-12-23T03:08:33.320Z,996.0
2022-12-23T03:09:33.331Z,996.2
2022-12-23T03:10:33.339Z,996.1
2022-12-23T03:11:33.339Z,996.2
2022-12-23T03:12:33.354Z,996.2
2022-12-23T03:13:33.351Z,996.2
2022-12-23T03:14:33.374Z,996.2
2022-12-23T03:15:33.889Z,996.2
2022-12-23T03:16:33.398Z,996.2
2022-12-23T03:17:33.392Z,996.2
2022-12-23T03:18:33.425Z,996.2
2022-12-23T03:19:33.392Z,996.2
2022-12-23T03:20:33.422Z,996.2
2022-12-23T03:21:33.431Z,996.3
2022-12-23T03:22:33.426Z,996.2
2022-12-23T03:23:33.430Z,996.2
2022-12-23T03:24:33.445Z,996.2
2022-12-23T03:25:33.441Z,996.1
2022-12-23T03:26:33.459Z,996.2
2022-12-23T03:27:33.459Z,996.2
2022-12-23T03:28:33.467Z,996.2
2022-12-23T03:29:33.482Z,996.2
2022-12-23T03:30:33.475Z,996.3
2022-12-23T03:31:33.650Z,996.3
2022-12-23T03:32:33.517Z,996.3
2022-12-23T03:33:33.516Z,996.3
2022-12-23T03:34:33.512Z,996.3
2022-12-23T03:35:33.515Z,996.4
2022-12-23T03:36:33.542Z,996.5
2022-12-23T03:37:33.540Z,996.4
2022-12-23T03:38:33.545Z,996.4
2022-12-23T03:39:33.543Z,996.5
2022-12-23T03:40:33.559Z,996.4
2022-12-23T03:41:33.560Z,996.5
2022-12-23T03:42:33.571Z,996.4
2022-12-23T03:43:33.611Z,996.4
2022-12-23T03:44:33.597Z,996.4
2022-12-23T03:45:41.906Z,996.4
2022-12-23T03:46:33.710Z,996.3
2022-12-23T03:47:33.603Z,996.3
2022-12-23T03:48:33.621Z,996.4
2022-12-23T03:49:33.623Z,996.4
2022-12-23T03:50:33.624Z,996.4
2022-12-23T03:51:33.638Z,996.4
2022-12-23T03:52:33.697Z,996.4
2022-12-23T03:53:33.642Z,996.4
2022-12-23T03:54:33.659Z,996.4
2022-12-23T03:55:33.680Z,996.4
2022-12-23T03:56:33.668Z,996.5
2022-12-23T03:57:33.700Z,996.4
2022-12-23T03:58:33.694Z,996.4
2022-12-23T03:59:33.704Z,996.4
2022-12-23T04:00:33.702Z,996.4
2022-12-23T04:01:33.829Z,996.4
2022-12-23T04:02:33.910Z,996.4
2022-12-23T04:03:33.918Z,996.5
2022-12-23T04:04:33.737Z,996.4
2022-12-23T04:05:33.753Z,996.4
2022-12-23T04:06:33.755Z,996.4
2022-12-23T04:07:33.759Z,996.4
2022-12-23T04:08:33.780Z,996.5
2022-12-23T04:09:33.778Z,996.5
2022-12-23T04:10:33.803Z,996.4
2022-12-23T04:11:33.911Z,996.4
2022-12-23T04:12:33.800Z,996.4
2022-12-23T04:13:33.819Z,996.5
2022-12-23T04:14:33.819Z,996.5
2022-12-23T04:15:33.827Z,996.5
2022-12-23T04:16:33.957Z,996.5
2022-12-23T04:17:33.844Z,996.6
2022-12-23T04:18:33.849Z,996.5
2022-12-23T04:19:33.861Z,996.5
2022-12-23T04:20:33.863Z,996.5
2022-12-23T04:21:33.880Z,996.5
2022-12-23T04:22:33.894Z,996.5
2022-12-23T04:23:33.893Z,996.5
2022-12-23T04:24:33.907Z,996.5
2022-12-23T04:25:33.908Z,996.4
2022-12-23T04:26:33.926Z,996.5
2022-12-23T04:27:33.944Z,996.5
2022-12-23T04:28:33.944Z,996.4
2022-12-23T04:29:33.961Z,996.5
2022-12-23T04:30:35.217Z,996.5
2022-12-23T04:31:34.143Z,996.5
2022-12-23T04:32:33.968Z,996.6
2022-12-23T04:33:33.993Z,996.5
2022-12-23T04:34:34.009Z,996.5
2022-12-23T04:35:33.990Z,996.5
2022-12-23T04:36:34.005Z,996.5
2022-12-23T04:37:34.026Z,996.5
2022-12-23T04:38:34.037Z,996.5
2022-12-23T04:39:34.050Z,996.5
2022-12-23T04:40:34.040Z,996.6
2022-12-23T04:41:34.053Z,996.5
2022-12-23T04:42:34.076Z,996.6
2022-12-23T04:43:34.078Z,996.5
2022-12-23T04:44:34.073Z,996.6
2022-12-23T04:45:34.107Z,996.5
2022-12-23T04:46:34.168Z,996.5
2022-12-23T04:47:34.107Z,996.6
2022-12-23T04:48:34.111Z,996.6
2022-12-23T04:49:34.118Z,996.6
2022-12-23T04:50:34.135Z,996.4
2022-12-23T04:51:34.151Z,996.4
2022-12-23T04:52:34.136Z,996.5
2022-12-23T04:53:34.148Z,996.5
2022-12-23T04:54:34.165Z,996.5
2022-12-23T04:55:34.204Z,996.5
2022-12-23T04:56:34.165Z,996.5
2022-12-23T04:57:34.170Z,996.5
2022-12-23T04:58:34.190Z,996.5
2022-12-23T04:59:34.190Z,996.5
2022-12-23T05:00:40.265Z,996.6
2022-12-23T05:01:34.419Z,996.6
2022-12-23T05:02:34.454Z,996.6
2022-12-23T05:03:34.389Z,996.6
2022-12-23T05:04:34.271Z,996.6
2022-12-23T05:05:34.245Z,996.6
2022-12-23T05:06:34.260Z,996.6
2022-12-23T05:07:34.274Z,996.6
2022-12-23T05:08:34.278Z,996.7
2022-12-23T05:09:34.305Z,996.6
2022-12-23T05:10:34.297Z,996.7
2022-12-23T05:11:42.606Z,996.7
2022-12-23T05:12:34.307Z,996.8
2022-12-23T05:13:34.341Z,996.7
2022-12-23T05:14:34.326Z,996.7
2022-12-23T05:15:34.337Z,996.8
2022-12-23T05:16:34.552Z,996.9
2022-12-23T05:17:34.360Z,996.8
2022-12-23T05:18:34.364Z,996.8
2022-12-23T05:19:34.369Z,996.9
2022-12-23T05:20:34.371Z,996.9
2022-12-23T05:21:34.386Z,996.8
2022-12-23T05:22:34.382Z,996.8
2022-12-23T05:23:34.399Z,996.8
2022-12-23T05:24:34.405Z,996.8
2022-12-23T05:25:34.414Z,996.8
2022-12-23T05:26:34.415Z,996.8
2022-12-23T05:27:34.423Z,996.8
2022-12-23T05:28:34.427Z,996.8
2022-12-23T05:29:34.459Z,996.9
2022-12-23T05:30:34.444Z,996.9
2022-12-23T05:31:34.569Z,996.8
2022-12-23T05:32:34.478Z,996.8
2022-12-23T05:33:34.638Z,996.9
2022-12-23T05:34:34.528Z,996.8
2022-12-23T05:35:34.488Z,996.8
2022-12-23T05:36:34.507Z,996.9
2022-12-23T05:37:34.522Z,996.9
2022-12-23T05:38:34.513Z,996.8
2022-12-23T05:39:34.523Z,996.9
2022-12-23T05:40:34.661Z,997.0
2022-12-23T05:41:34.529Z,996.9
2022-12-23T05:42:34.557Z,996.9
2022-12-23T05:43:34.549Z,996.9
2022-12-23T05:44:34.560Z,997.0
2022-12-23T05:45:34.699Z,996.9
2022-12-23T05:46:34.757Z,997.0
2022-12-23T05:47:34.577Z,997.0
2022-12-23T05:48:34.588Z,997.0
2022-12-23T05:49:34.610Z,997.0
2022-12-23T05:50:34.610Z,997.0
2022-12-23T05:51:34.612Z,997.0
2022-12-23T05:52:34.628Z,997.0
2022-12-23T05:53:34.614Z,997.0
2022-12-23T05:54:34.623Z,997.0
2022-12-23T05:55:34.643Z,997.1
2022-12-23T05:56:34.647Z,997.1
2022-12-23T05:57:34.649Z,997.0
2022-12-23T05:58:34.682Z,997.1
2022-12-23T05:59:34.668Z,997.0
2022-12-23T06:00:34.675Z,997.0
2022-12-23T06:01:34.948Z,997.2
2022-12-23T06:02:35.125Z,997.1
2022-12-23T06:03:35.302Z,997.2
2022-12-23T06:04:34.713Z,997.2
2022-12-23T06:05:34.719Z,997.1
2022-12-23T06:06:34.727Z,997.2
2022-12-23T06:07:34.744Z,997.3
2022-12-23T06:08:34.749Z,997.3
2022-12-23T06:09:34.755Z,997.2
2022-12-23T06:10:34.767Z,997.3
2022-12-23T06:11:34.775Z,997.3
2022-12-23T06:12:34.772Z,997.2
2022-12-23T06:13:34.783Z,997.3
2022-12-23T06:14:34.787Z,997.3
2022-12-23T06:15:34.798Z,997.3
2022-12-23T06:16:34.957Z,997.4
2022-12-23T06:17:34.821Z,997.4
2022-12-23T06:18:34.822Z,997.3
2022-12-23T06:19:34.855Z,997.4
2022-12-23T06:20:34.840Z,997.3
2022-12-23T06:21:34.876Z,997.4
2022-12-23T06:22:34.867Z,997.3
2022-12-23T06:23:34.852Z,997.3
2022-12-23T06:24:34.868Z,997.4
2022-12-23T06:25:34.874Z,997.4
2022-12-23T06:26:34.881Z,997.2
2022-12-23T06:27:34.896Z,997.3
2022-12-23T06:28:34.917Z,997.4
2022-12-23T06:29:34.915Z,997.3
2022-12-23T06:30:34.924Z,997.4
2022-12-23T06:31:35.014Z,997.3
2022-12-23T06:32:39.143Z,997.3
2022-12-23T06:33:34.950Z,997.2
2022-12-23T06:34:34.941Z,997.2
2022-12-23T06:35:34.953Z,997.2
2022-12-23T06:36:34.952Z,997.3
2022-12-23T06:37:34.974Z,997.4
2022-12-23T06:38:34.980Z,997.4
2022-12-23T06:39:34.989Z,997.4
2022-12-23T06:40:34.985Z,997.4
2022-12-23T06:41:35.003Z,997.5
2022-12-23T06:42:35.025Z,997.5
2022-12-23T06:43:35.033Z,997.5
2022-12-23T06:44:35.039Z,997.5
2022-12-23T06:45:35.201Z,997.5
2022-12-23T06:46:35.047Z,997.5
2022-12-23T06:47:35.062Z,997.4
2022-12-23T06:48:35.074Z,997.4
2022-12-23T06:49:35.076Z,997.4
2022-12-23T06:50:35.093Z,997.3
2022-12-23T06:51:35.099Z,997.4
2022-12-23T06:52:35.143Z,997.3
2022-12-23T06:53:35.118Z,997.4
2022-12-23T06:54:35.137Z,997.4
2022-12-23T06:55:35.150Z,997.5
2022-12-23T06:56:35.140Z,997.4
2022-12-23T06:57:35.149Z,997.5
2022-12-23T06:58:35.155Z,997.5
2022-12-23T06:59:35.169Z,997.5
2022-12-23T07:00:35.174Z,997.5
2022-12-23T07:01:35.317Z,997.5
2022-12-23T07:02:35.587Z,997.5
2022-12-23T07:03:35.345Z,997.5
2022-12-23T07:04:35.203Z,997.5
2022-12-23T07:05:38.034Z,997.5
2022-12-23T07:06:35.218Z,997.5
2022-12-23T07:07:35.229Z,997.5
2022-12-23T07:08:35.244Z,997.5
2022-12-23T07:09:35.254Z,997.5
2022-12-23T07:10:35.261Z,997.5
2022-12-23T07:11:35.306Z,997.5
2022-12-23T07:12:35.271Z,997.5
2022-12-23T07:13:35.277Z,997.5
2022-12-23T07:14:35.274Z,997.5
2022-12-23T07:15:35.302Z,997.4
2022-12-23T07:16:35.469Z,997.5
2022-12-23T07:17:35.319Z,997.4
2022-12-23T07:18:35.330Z,997.5
2022-12-23T07:19:35.328Z,997.5
2022-12-23T07:20:35.333Z,997.6
2022-12-23T07:21:35.343Z,997.5
2022-12-23T07:22:36.514Z,997.6
2022-12-23T07:23:35.358Z,997.7
2022-12-23T07:24:35.363Z,997.7
2022-12-23T07:25:35.380Z,997.7
2022-12-23T07:26:35.385Z,997.7
2022-12-23T07:27:35.413Z,997.7
2022-12-23T07:28:35.414Z,997.8
2022-12-23T07:29:35.406Z,997.7
2022-12-23T07:30:35.415Z,997.7
2022-12-23T07:31:41.200Z,997.7
2022-12-23T07:32:35.439Z,997.7
2022-12-23T07:33:35.442Z,997.7
2022-12-23T07:34:35.454Z,997.7
2022-12-23T07:35:35.467Z,997.8
2022-12-23T07:36:35.519Z,997.7
2022-12-23T07:37:35.479Z,997.8
2022-12-23T07:38:35.510Z,997.8
2022-12-23T07:39:35.537Z,997.8
2022-12-23T07:40:35.561Z,997.9
2022-12-23T07:41:35.547Z,997.8
2022-12-23T07:42:46.703Z,997.8
2022-12-23T07:43:35.601Z,997.9
2022-12-23T07:44:35.591Z,997.9
2022-12-23T07:45:35.692Z,997.9
2022-12-23T07:46:35.711Z,998.1
2022-12-23T07:47:35.601Z,998.0
2022-12-23T07:48:35.588Z,998.1
2022-12-23T07:49:35.598Z,998.2
2022-12-23T07:50:36.535Z,998.2
2022-12-23T07:51:35.681Z,998.3
2022-12-23T07:52:35.634Z,998.2
2022-12-23T07:53:35.700Z,998.2
2022-12-23T07:54:35.658Z,998.2
2022-12-23T07:55:35.682Z,998.2
2022-12-23T07:56:35.675Z,998.2
2022-12-23T07:57:35.686Z,998.2
2022-12-23T07:58:35.700Z,998.1
2022-12-23T07:59:35.731Z,998.1
2022-12-23T08:00:35.714Z,998.1
2022-12-23T08:01:35.987Z,998.2
2022-12-23T08:02:36.065Z,998.1
2022-12-23T08:03:35.848Z,998.2
2022-12-23T08:04:45.744Z,998.1
2022-12-23T08:05:35.773Z,998.1
2022-12-23T08:06:35.784Z,998.1
2022-12-23T08:07:35.804Z,998.1
2022-12-23T08:08:35.821Z,998.0
2022-12-23T08:09:36.498Z,998.1
2022-12-23T08:10:35.820Z,998.1
2022-12-23T08:11:35.825Z,998.1
2022-12-23T08:12:35.840Z,998.0
2022-12-23T08:13:35.872Z,998.1
2022-12-23T08:14:35.880Z,998.2
2022-12-23T08:15:35.880Z,998.0
2022-12-23T08:16:44.092Z,998.0
2022-12-23T08:17:35.902Z,998.0
2022-12-23T08:18:35.909Z,998.1
2022-12-23T08:19:35.906Z,998.1
2022-12-23T08:20:35.929Z,998.2
2022-12-23T08:21:35.921Z,998.2
2022-12-23T08:22:35.961Z,998.2
2022-12-23T08:23:35.941Z,998.3
2022-12-23T08:24:35.956Z,998.2
2022-12-23T08:25:35.974Z,998.3
2022-12-23T08:26:35.974Z,998.3
2022-12-23T08:27:36.021Z,998.3
2022-12-23T08:28:36.559Z,998.3
2022-12-23T08:29:36.819Z,998.3
2022-12-23T08:30:36.094Z,998.3
2022-12-23T08:31:36.099Z,998.3
2022-12-23T08:32:36.028Z,998.3
2022-12-23T08:33:36.033Z,998.4
2022-12-23T08:34:36.042Z,998.4
2022-12-23T08:35:36.067Z,998.4
2022-12-23T08:36:36.071Z,998.4
2022-12-23T08:37:36.069Z,998.4
2022-12-23T08:38:36.102Z,998.4
2022-12-23T08:39:36.947Z,998.5
2022-12-23T08:40:36.096Z,998.4
2022-12-23T08:41:36.111Z,998.3
2022-12-23T08:42:36.111Z,998.4
2022-12-23T08:43:36.467Z,998.5
2022-12-23T08:44:36.139Z,998.5
2022-12-23T08:45:36.145Z,998.4
2022-12-23T08:46:36.250Z,998.5
2022-12-23T08:47:36.191Z,998.5
2022-12-23T08:48:36.178Z,998.4
2022-12-23T08:49:36.179Z,998.5
2022-12-23T08:50:36.185Z,998.5
2022-12-23T08:51:36.201Z,998.5
2022-12-23T08:52:36.417Z,998.5
2022-12-23T08:53:36.212Z,998.5
2022-12-23T08:54:36.220Z,998.5
2022-12-23T08:55:36.231Z,998.5
2022-12-23T08:56:36.236Z,998.5
2022-12-23T08:57:36.262Z,998.5
2022-12-23T08:58:36.279Z,998.5
2022-12-23T08:59:36.642Z,998.5
2022-12-23T09:00:36.288Z,998.7
2022-12-23T09:01:36.629Z,998.6
2022-12-23T09:02:36.687Z,998.7
2022-12-23T09:03:36.599Z,998.6
2022-12-23T09:04:36.334Z,998.7
2022-12-23T09:05:36.341Z,998.7
2022-12-23T09:06:36.357Z,998.6
2022-12-23T09:07:36.365Z,998.8
2022-12-23T09:08:36.381Z,998.7
2022-12-23T09:09:36.382Z,998.7
2022-12-23T09:10:36.405Z,998.8
2022-12-23T09:11:36.421Z,998.8
2022-12-23T09:12:36.419Z,998.8
2022-12-23T09:13:36.447Z,998.9
2022-12-23T09:14:37.186Z,998.8
2022-12-23T09:15:36.518Z,998.8
2022-12-23T09:16:36.684Z,998.8
2022-12-23T09:17:36.460Z,998.9
2022-12-23T09:18:36.475Z,998.8
2022-12-23T09:19:36.487Z,998.9
2022-12-23T09:20:36.499Z,998.8
2022-12-23T09:21:36.513Z,998.8
2022-12-23T09:22:36.507Z,998.8
2022-12-23T09:23:36.528Z,998.8
2022-12-23T09:24:36.532Z,998.8
2022-12-23T09:25:36.547Z,998.8
2022-12-23T09:26:36.571Z,998.8
2022-12-23T09:27:36.580Z,998.8
2022-12-23T09:28:36.586Z,998.8
2022-12-23T09:29:36.602Z,998.8
2022-12-23T09:30:36.598Z,998.8
2022-12-23T09:31:38.324Z,998.9
2022-12-23T09:32:36.617Z,998.8
2022-12-23T09:33:36.689Z,998.8
2022-12-23T09:34:36.657Z,998.8
2022-12-23T09:35:36.646Z,998.8
2022-12-23T09:36:36.724Z,998.8
2022-12-23T09:37:36.682Z,998.9
2022-12-23T09:38:36.703Z,998.8
2022-12-23T09:39:36.694Z,998.8
2022-12-23T09:40:36.708Z,998.8
2022-12-23T09:41:36.723Z,998.9
2022-12-23T09:42:36.729Z,998.9
2022-12-23T09:43:36.738Z,999.0
2022-12-23T09:44:36.753Z,998.9
2022-12-23T09:45:41.017Z,999.0
2022-12-23T09:46:37.045Z,998.9
2022-12-23T09:47:36.781Z,998.9
2022-12-23T09:48:36.787Z,998.9
2022-12-23T09:49:36.792Z,998.9
2022-12-23T09:50:36.812Z,999.0
2022-12-23T09:51:36.807Z,998.9
2022-12-23T09:52:36.823Z,998.9
2022-12-23T09:53:36.843Z,999.0
2022-12-23T09:54:36.848Z,999.0
2022-12-23T09:55:36.873Z,999.0
2022-12-23T09:56:36.892Z,999.0
2022-12-23T09:57:36.874Z,999.0
2022-12-23T09:58:36.890Z,999.0
2022-12-23T09:59:36.911Z,999.1
2022-12-23T10:00:36.918Z,999.0
2022-12-23T10:01:44.913Z,999.0
2022-12-23T10:02:37.313Z,999.1
2022-12-23T10:03:37.659Z,999.0
2022-12-23T10:04:37.145Z,999.0
2022-12-23T10:05:36.990Z,999.0
2022-12-23T10:06:36.968Z,999.0
2022-12-23T10:07:36.994Z,998.9
2022-12-23T10:08:36.996Z,998.9
2022-12-23T10:09:37.007Z,998.9
2022-12-23T10:10:37.029Z,998.9
2022-12-23T10:11:37.039Z,998.8
2022-12-23T10:12:40.663Z,998.7
2022-12-23T10:13:37.047Z,998.7
2022-12-23T10:14:37.052Z,998.7
2022-12-23T10:15:37.076Z,998.8
2022-12-23T10:16:37.293Z,998.8
2022-12-23T10:17:37.100Z,998.8
2022-12-23T10:18:37.087Z,998.8
2022-12-23T10:19:37.086Z,998.8
2022-12-23T10:20:37.114Z,998.8
2022-12-23T10:21:45.317Z,998.8
2022-12-23T10:22:37.133Z,998.8
2022-12-23T10:23:37.126Z,998.8
2022-12-23T10:24:37.145Z,998.8
2022-12-23T10:25:37.152Z,998.8
2022-12-23T10:26:37.160Z,998.8
2022-12-23T10:27:37.166Z,998.8
2022-12-23T10:28:37.183Z,998.8
2022-12-23T10:29:37.192Z,998.8
2022-12-23T10:31:17.063Z,998.8
2022-12-23T10:31:41.849Z,998.9
2022-12-23T10:32:52.564Z,998.8
2022-12-23T10:33:37.223Z,998.8
2022-12-23T10:34:46.682Z,998.8
2022-12-23T10:35:37.265Z,998.8
2022-12-23T10:36:37.350Z,998.8
2022-12-23T10:37:37.261Z,998.8
2022-12-23T10:38:37.270Z,998.9
2022-12-23T10:39:37.281Z,998.8
2022-12-23T10:40:37.283Z,998.9
2022-12-23T10:41:37.305Z,998.9
2022-12-23T10:42:37.297Z,998.9
2022-12-23T10:43:37.319Z,998.9
2022-12-23T10:44:37.606Z,999.0
2022-12-23T10:45:37.468Z,998.9
2022-12-23T10:46:37.536Z,998.9
2022-12-23T10:47:37.340Z,998.9
2022-12-23T10:48:37.351Z,998.9
2022-12-23T10:49:37.365Z,998.8
2022-12-23T10:50:37.370Z,998.9
2022-12-23T10:51:37.388Z,998.8
2022-12-23T10:52:37.396Z,998.9
2022-12-23T10:53:37.411Z,998.9
2022-12-23T10:54:37.427Z,998.8
2022-12-23T10:55:37.415Z,998.8
2022-12-23T10:56:37.432Z,998.8
2022-12-23T10:57:37.426Z,998.8
2022-12-23T10:58:37.456Z,998.8
2022-12-23T10:59:37.449Z,998.8
2022-12-23T11:00:37.593Z,998.8
2022-12-23T11:01:37.837Z,998.7
2022-12-23T11:02:37.829Z,998.8
2022-12-23T11:03:37.824Z,998.7
2022-12-23T11:04:37.524Z,998.8
2022-12-23T11:05:37.513Z,998.8
2022-12-23T11:06:38.111Z,998.8
2022-12-23T11:07:46.561Z,998.8
2022-12-23T11:08:37.535Z,998.8
2022-12-23T11:09:37.548Z,998.8
2022-12-23T11:10:37.577Z,998.8
2022-12-23T11:11:37.569Z,998.7
2022-12-23T11:12:42.813Z,998.7
2022-12-23T11:13:37.588Z,998.8
2022-12-23T11:14:37.607Z,998.7
2022-12-23T11:15:37.640Z,998.8
2022-12-23T11:16:37.776Z,998.8
2022-12-23T11:17:37.635Z,998.9
2022-12-23T11:18:42.387Z,998.9
2022-12-23T11:19:37.643Z,999.0
2022-12-23T11:20:37.650Z,998.9
2022-12-23T11:21:37.656Z,998.9
2022-12-23T11:22:37.662Z,998.9
2022-12-23T11:23:37.679Z,999.0
2022-12-23T11:24:43.501Z,999.0
2022-12-23T11:25:37.706Z,998.9
2022-12-23T11:26:37.728Z,998.8
2022-12-23T11:27:37.729Z,998.8
2022-12-23T11:28:37.778Z,998.9
2022-12-23T11:29:37.751Z,999.0
2022-12-23T11:30:37.759Z,998.9
2022-12-23T11:31:37.812Z,998.9
2022-12-23T11:32:37.774Z,999.1
2022-12-23T11:33:37.816Z,999.1
2022-12-23T11:34:37.863Z,999.1
2022-12-23T11:35:38.075Z,999.0
2022-12-23T11:36:37.804Z,998.9
2022-12-23T11:37:37.835Z,998.9
2022-12-23T11:38:37.839Z,998.9
2022-12-23T11:39:37.874Z,998.9
2022-12-23T11:40:37.876Z,998.9
2022-12-23T11:41:37.865Z,998.8
2022-12-23T11:42:37.891Z,998.8
2022-12-23T11:43:37.884Z,998.8
2022-12-23T11:44:37.896Z,998.7
2022-12-23T11:45:37.995Z,998.8
2022-12-23T11:46:37.929Z,998.8
2022-12-23T11:47:37.965Z,998.7
2022-12-23T11:48:37.951Z,998.7
2022-12-23T11:49:37.963Z,998.7
2022-12-23T11:50:37.973Z,998.7
2022-12-23T11:51:37.979Z,998.7
2022-12-23T11:52:37.987Z,998.7
2022-12-23T11:53:37.993Z,998.8
2022-12-23T11:54:38.006Z,998.8
2022-12-23T11:55:38.019Z,998.7
2022-12-23T11:56:38.153Z,998.7
2022-12-23T11:57:38.047Z,998.7
2022-12-23T11:58:38.067Z,998.7
2022-12-23T11:59:38.056Z,998.8
2022-12-23T12:00:38.072Z,998.8
2022-12-23T12:01:38.065Z,998.7
2022-12-23T12:02:38.167Z,998.8
2022-12-23T12:03:38.195Z,998.8
2022-12-23T12:04:38.108Z,998.8
2022-12-23T12:05:38.138Z,998.8
2022-12-23T12:06:38.125Z,998.8
2022-12-23T12:07:38.271Z,998.8
2022-12-23T12:08:38.244Z,998.8
2022-12-23T12:09:38.147Z,998.8
2022-12-23T12:10:38.178Z,998.8
2022-12-23T12:11:38.178Z,998.8
2022-12-23T12:12:38.187Z,998.8
2022-12-23T12:13:38.202Z,998.8
2022-12-23T12:14:38.201Z,998.7
2022-12-23T12:15:38.216Z,998.8
2022-12-23T12:16:38.326Z,998.7
2022-12-23T12:17:38.247Z,998.8
2022-12-23T12:18:38.236Z,998.7
2022-12-23T12:19:38.250Z,998.7
2022-12-23T12:20:38.268Z,998.8
2022-12-23T12:21:38.270Z,998.7
2022-12-23T12:22:38.273Z,998.8
2022-12-23T12:23:38.287Z,998.7
2022-12-23T12:24:38.317Z,998.7
2022-12-23T12:25:40.079Z,998.6
2022-12-23T12:26:38.335Z,998.7
2022-12-23T12:27:38.361Z,998.6
2022-12-23T12:28:38.364Z,998.6
2022-12-23T12:29:38.362Z,998.5
2022-12-23T12:30:38.461Z,998.5
2022-12-23T12:31:38.376Z,998.5
2022-12-23T12:32:38.388Z,998.5
2022-12-23T12:33:38.398Z,998.4
2022-12-23T12:34:38.408Z,998.4
2022-12-23T12:35:38.425Z,998.4
2022-12-23T12:36:38.501Z,998.5
2022-12-23T12:37:38.438Z,998.5
2022-12-23T12:38:38.451Z,998.5
2022-12-23T12:39:38.464Z,998.5
2022-12-23T12:40:38.468Z,998.5
2022-12-23T12:41:38.510Z,998.4
2022-12-23T12:42:38.493Z,998.4
2022-12-23T12:43:38.501Z,998.4
2022-12-23T12:44:38.505Z,998.3
2022-12-23T12:45:38.610Z,998.3
2022-12-23T12:46:38.528Z,998.3
2022-12-23T12:47:58.329Z,998.3
2022-12-23T12:48:38.558Z,998.3
2022-12-23T12:49:38.577Z,998.3
2022-12-23T12:50:38.561Z,998.3
2022-12-23T12:51:38.580Z,998.2
2022-12-23T12:52:38.584Z,998.2
2022-12-23T12:53:38.602Z,998.3
2022-12-23T12:54:38.610Z,998.2
2022-12-23T12:55:38.632Z,998.3
2022-12-23T12:56:38.650Z,998.2
2022-12-23T12:57:38.647Z,998.3
2022-12-23T12:58:38.663Z,998.2
2022-12-23T12:59:38.768Z,998.3
2022-12-23T13:00:38.679Z,998.3
2022-12-23T13:01:38.958Z,998.2
2022-12-23T13:02:38.776Z,998.2
2022-12-23T13:03:38.706Z,998.2
2022-12-23T13:04:38.713Z,998.2
2022-12-23T13:05:38.740Z,998.3
2022-12-23T13:06:38.733Z,998.2
2022-12-23T13:07:38.762Z,998.2
2022-12-23T13:08:38.775Z,998.2
2022-12-23T13:09:38.780Z,998.2